createdAt,value
2017-08-29T00:00:22.247Z,23.5
2017-08-29T00:01:03.015Z,23.39
2017-08-29T00:01:43.932Z,23.27
2017-08-29T00:02:24.692Z,23.13
2017-08-29T00:03:05.552Z,23.12
2017-08-29T00:03:46.317Z,23.1
2017-08-29T00:04:27.101Z,23.15
2017-08-29T00:05:08.361Z,23.22
2017-08-29T00:05:49.422Z,23.09
2017-08-29T00:06:30.392Z,23.04
2017-08-29T00:07:11.176Z,23.12
2017-08-29T00:07:51.851Z,23.12
2017-08-29T00:08:32.426Z,23.12
2017-08-29T00:09:13.172Z,23.13
2017-08-29T00:09:53.809Z,23.01
2017-08-29T00:10:34.437Z,22.97
2017-08-29T00:11:15.835Z,22.98
2017-08-29T00:11:56.366Z,23.13
2017-08-29T00:12:37.779Z,23.07
2017-08-29T00:13:18.423Z,23.19
2017-08-29T00:13:58.962Z,22.98
2017-08-29T00:14:39.516Z,22.97
2017-08-29T00:15:20.078Z,22.97
2017-08-29T00:16:00.647Z,23.13
2017-08-29T00:16:41.178Z,23.2
2017-08-29T00:17:21.702Z,23.28
2017-08-29T00:18:02.193Z,23.31
2017-08-29T00:18:42.804Z,23.28
2017-08-29T00:19:23.283Z,23.23
2017-08-29T00:20:03.841Z,23.23
2017-08-29T00:20:44.422Z,23.1
2017-08-29T00:21:24.957Z,23.16
2017-08-29T00:22:05.532Z,23.23
2017-08-29T00:22:46.020Z,23.25
2017-08-29T00:23:26.606Z,23.27
2017-08-29T00:24:07.213Z,23.23
2017-08-29T00:24:48.696Z,23.23
2017-08-29T00:25:29.239Z,23.31
2017-08-29T00:26:09.787Z,23.12
2017-08-29T00:26:50.291Z,23.07
2017-08-29T00:27:30.951Z,23.23
2017-08-29T00:28:11.390Z,23.22
2017-08-29T00:29:01.983Z,23.16
2017-08-29T00:31:16.304Z,23.27
2017-08-29T00:31:56.859Z,23.27
2017-08-29T00:32:37.416Z,23.28
2017-08-29T00:33:17.996Z,23.35
2017-08-29T00:33:58.547Z,23.31
2017-08-29T00:34:39.119Z,23.39
2017-08-29T00:35:19.670Z,23.38
2017-08-29T00:36:00.228Z,23.33
2017-08-29T00:36:40.725Z,23.25
2017-08-29T00:37:21.279Z,23.38
2017-08-29T00:38:01.860Z,23.39
2017-08-29T00:38:42.375Z,23.39
2017-08-29T00:39:22.931Z,23.38
2017-08-29T00:40:03.451Z,23.33
2017-08-29T00:40:43.986Z,23.23
2017-08-29T00:41:24.489Z,23.17
2017-08-29T00:42:05.030Z,23.12
2017-08-29T00:42:45.582Z,23.15
2017-08-29T00:43:26.123Z,23.09
2017-08-29T00:44:06.638Z,23.17
2017-08-29T00:44:47.227Z,23.22
2017-08-29T00:45:27.696Z,23.09
2017-08-29T00:46:08.294Z,23.22
2017-08-29T00:46:48.780Z,23.23
2017-08-29T00:47:29.364Z,23.2
2017-08-29T00:48:09.866Z,23.12
2017-08-29T00:48:50.431Z,23.28
2017-08-29T00:49:30.968Z,23.22
2017-08-29T00:50:11.517Z,23.13
2017-08-29T00:50:52.035Z,23.1
2017-08-29T00:51:32.569Z,23.22
2017-08-29T00:52:13.139Z,23.31
2017-08-29T00:52:53.661Z,23.35
2017-08-29T00:53:34.194Z,23.13
2017-08-29T00:54:14.771Z,23.23
2017-08-29T00:54:55.307Z,23.25
2017-08-29T00:55:35.825Z,23.25
2017-08-29T00:56:16.335Z,23.12
2017-08-29T00:56:56.881Z,23.12
2017-08-29T00:57:37.479Z,23.16
2017-08-29T00:58:17.971Z,23.15
2017-08-29T00:58:58.531Z,23.2
2017-08-29T00:59:39.094Z,23.19
2017-08-29T01:00:19.611Z,23.2
2017-08-29T01:01:00.166Z,23.17
2017-08-29T01:01:40.709Z,23.1
2017-08-29T01:02:21.310Z,22.94
2017-08-29T01:03:01.825Z,22.97
2017-08-29T01:03:42.405Z,22.75
2017-08-29T01:04:22.893Z,22.65
2017-08-29T01:05:03.443Z,22.6
2017-08-29T01:05:43.973Z,22.68
2017-08-29T01:06:24.514Z,22.7
2017-08-29T01:07:05.029Z,22.52
2017-08-29T01:07:45.565Z,22.52
2017-08-29T01:08:26.121Z,22.33
2017-08-29T01:09:06.632Z,22.4
2017-08-29T01:09:47.196Z,22.54
2017-08-29T01:10:27.713Z,22.52
2017-08-29T01:11:08.298Z,22.51
2017-08-29T01:11:48.830Z,22.52
2017-08-29T01:12:29.353Z,22.61
2017-08-29T01:13:09.886Z,22.57
2017-08-29T01:13:50.461Z,22.6
2017-08-29T01:14:30.962Z,22.65
2017-08-29T01:15:11.519Z,22.75
2017-08-29T01:15:52.036Z,22.72
2017-08-29T01:16:32.594Z,22.8
2017-08-29T01:17:13.151Z,22.91
2017-08-29T01:17:53.693Z,22.9
2017-08-29T01:18:34.366Z,22.9
2017-08-29T01:19:14.945Z,22.9
2017-08-29T01:19:55.486Z,22.97
2017-08-29T01:20:35.993Z,22.9
2017-08-29T01:21:16.572Z,22.98
2017-08-29T01:21:57.103Z,23.01
2017-08-29T01:22:37.644Z,22.98
2017-08-29T01:23:18.203Z,22.98
2017-08-29T01:23:58.728Z,23.1
2017-08-29T01:24:39.278Z,23.09
2017-08-29T01:25:19.797Z,23.13
2017-08-29T01:26:00.324Z,23.07
2017-08-29T01:26:40.856Z,23.07
2017-08-29T01:27:21.363Z,23.13
2017-08-29T01:28:01.947Z,23.13
2017-08-29T01:28:42.454Z,23.01
2017-08-29T01:29:22.986Z,22.97
2017-08-29T01:30:03.569Z,22.97
2017-08-29T01:30:44.129Z,22.9
2017-08-29T01:31:24.672Z,22.85
2017-08-29T01:32:05.298Z,22.85
2017-08-29T01:32:45.986Z,22.94
2017-08-29T01:33:26.482Z,22.98
2017-08-29T01:34:07.041Z,22.95
2017-08-29T01:34:47.562Z,23.02
2017-08-29T01:35:28.123Z,23.1
2017-08-29T01:36:08.669Z,23.12
2017-08-29T01:36:49.228Z,23.05
2017-08-29T01:37:29.772Z,22.97
2017-08-29T01:38:10.277Z,22.79
2017-08-29T01:38:50.850Z,22.85
2017-08-29T01:39:31.335Z,22.61
2017-08-29T01:40:11.931Z,22.67
2017-08-29T01:40:52.489Z,22.75
2017-08-29T01:41:32.990Z,22.85
2017-08-29T01:42:13.535Z,22.92
2017-08-29T01:42:54.081Z,22.97
2017-08-29T01:43:34.643Z,22.94
2017-08-29T01:44:15.186Z,22.97
2017-08-29T01:44:55.708Z,22.94
2017-08-29T01:45:36.195Z,23.13
2017-08-29T01:46:16.725Z,23.07
2017-08-29T01:46:57.278Z,23.12
2017-08-29T01:47:37.823Z,23.09
2017-08-29T01:48:18.343Z,23.17
2017-08-29T01:48:58.938Z,23
2017-08-29T01:49:39.472Z,22.75
2017-08-29T01:50:19.986Z,22.79
2017-08-29T01:51:00.581Z,22.9
2017-08-29T01:51:41.106Z,22.9
2017-08-29T01:52:21.677Z,22.92
2017-08-29T01:53:02.168Z,23
2017-08-29T01:53:42.747Z,22.86
2017-08-29T01:54:23.321Z,22.88
2017-08-29T01:55:03.802Z,22.83
2017-08-29T01:55:44.384Z,22.9
2017-08-29T01:56:24.902Z,22.79
2017-08-29T01:57:05.472Z,22.68
2017-08-29T01:57:46.071Z,22.72
2017-08-29T01:58:26.580Z,22.79
2017-08-29T01:59:07.133Z,22.7
2017-08-29T01:59:47.677Z,22.68
2017-08-29T02:00:28.201Z,22.72
2017-08-29T02:01:08.775Z,22.76
2017-08-29T02:01:49.308Z,22.8
2017-08-29T02:02:29.855Z,22.76
2017-08-29T02:03:10.385Z,22.85
2017-08-29T02:03:50.942Z,22.86
2017-08-29T02:04:31.493Z,22.86
2017-08-29T02:05:12.018Z,22.86
2017-08-29T02:05:52.572Z,22.82
2017-08-29T02:06:33.133Z,22.9
2017-08-29T02:07:13.692Z,22.73
2017-08-29T02:07:54.249Z,22.75
2017-08-29T02:08:34.825Z,22.85
2017-08-29T02:09:15.340Z,22.76
2017-08-29T02:09:55.920Z,22.91
2017-08-29T02:10:36.451Z,22.86
2017-08-29T02:11:16.994Z,22.72
2017-08-29T02:11:57.546Z,22.62
2017-08-29T02:12:38.072Z,22.73
2017-08-29T02:13:18.617Z,22.65
2017-08-29T02:13:59.157Z,22.77
2017-08-29T02:14:39.673Z,22.82
2017-08-29T02:15:20.193Z,22.65
2017-08-29T02:16:00.718Z,22.77
2017-08-29T02:16:41.294Z,22.72
2017-08-29T02:17:21.839Z,22.65
2017-08-29T02:18:02.330Z,22.64
2017-08-29T02:18:42.825Z,22.47
2017-08-29T02:19:23.367Z,22.67
2017-08-29T02:20:03.878Z,22.7
2017-08-29T02:20:44.449Z,22.77
2017-08-29T02:21:24.996Z,22.77
2017-08-29T02:22:05.594Z,22.88
2017-08-29T02:22:46.152Z,22.77
2017-08-29T02:23:26.701Z,22.79
2017-08-29T02:24:07.564Z,22.88
2017-08-29T02:24:48.230Z,22.86
2017-08-29T02:25:28.914Z,22.76
2017-08-29T02:26:09.681Z,22.88
2017-08-29T02:26:50.601Z,22.72
2017-08-29T02:27:31.893Z,22.7
2017-08-29T02:28:12.983Z,22.68
2017-08-29T02:28:53.792Z,22.65
2017-08-29T02:29:34.830Z,22.67
2017-08-29T02:30:15.498Z,22.55
2017-08-29T02:30:56.357Z,22.57
2017-08-29T02:31:37.138Z,22.57
2017-08-29T02:32:17.997Z,22.64
2017-08-29T02:32:58.800Z,22.67
2017-08-29T02:33:39.743Z,22.67
2017-08-29T02:34:20.740Z,22.68
2017-08-29T02:35:01.534Z,22.72
2017-08-29T02:35:42.463Z,22.58
2017-08-29T02:36:23.191Z,22.52
2017-08-29T02:37:03.986Z,22.57
2017-08-29T02:37:44.462Z,22.42
2017-08-29T02:38:25.418Z,22.45
2017-08-29T02:39:06.214Z,22.55
2017-08-29T02:39:47.272Z,22.57
2017-08-29T02:40:28.022Z,22.45
2017-08-29T02:41:08.663Z,22.4
2017-08-29T02:41:50.238Z,22.33
2017-08-29T02:42:31.411Z,22.22
2017-08-29T02:43:12.239Z,22.22
2017-08-29T02:43:52.947Z,22.2
2017-08-29T02:44:33.994Z,22.31
2017-08-29T02:45:14.761Z,22.31
2017-08-29T02:45:55.426Z,22.28
2017-08-29T02:46:36.128Z,22.45
2017-08-29T02:47:16.669Z,22.43
2017-08-29T02:47:57.658Z,22.51
2017-08-29T02:48:38.366Z,22.52
2017-08-29T02:49:19.152Z,22.57
2017-08-29T02:49:59.876Z,22.49
2017-08-29T02:50:40.472Z,22.52
2017-08-29T02:51:21.337Z,22.55
2017-08-29T02:52:02.162Z,22.51
2017-08-29T02:52:43.005Z,22.54
2017-08-29T02:53:23.811Z,22.47
2017-08-29T02:54:04.731Z,22.49
2017-08-29T02:54:45.524Z,22.52
2017-08-29T02:55:26.492Z,22.45
2017-08-29T02:56:07.812Z,22.36
2017-08-29T02:56:48.851Z,22.52
2017-08-29T02:57:30.110Z,22.51
2017-08-29T02:58:11.478Z,22.47
2017-08-29T02:58:52.260Z,22.49
2017-08-29T02:59:32.813Z,22.49
2017-08-29T03:00:13.315Z,22.51
2017-08-29T03:00:54.374Z,22.45
2017-08-29T03:01:35.125Z,22.57
2017-08-29T03:02:16.035Z,22.49
2017-08-29T03:02:56.902Z,22.45
2017-08-29T03:03:37.780Z,22.54
2017-08-29T03:04:18.655Z,22.47
2017-08-29T03:04:59.958Z,22.4
2017-08-29T03:05:41.293Z,22.4
2017-08-29T03:06:21.968Z,22.3
2017-08-29T03:07:02.649Z,22.25
2017-08-29T03:07:43.210Z,22.3
2017-08-29T03:08:23.842Z,22.36
2017-08-29T03:09:04.992Z,22.27
2017-08-29T03:09:45.896Z,22.27
2017-08-29T03:10:26.663Z,22.31
2017-08-29T03:11:07.169Z,22.31
2017-08-29T03:11:47.754Z,22.3
2017-08-29T03:12:28.267Z,22.33
2017-08-29T03:13:08.797Z,22.33
2017-08-29T03:13:49.324Z,22.28
2017-08-29T03:14:29.878Z,22.2
2017-08-29T03:15:10.420Z,22.18
2017-08-29T03:15:50.934Z,22.33
2017-08-29T03:16:31.502Z,22.27
2017-08-29T03:17:12.043Z,22.33
2017-08-29T03:17:52.611Z,22.31
2017-08-29T03:18:33.179Z,22.15
2017-08-29T03:19:13.739Z,22.17
2017-08-29T03:19:54.265Z,22.17
2017-08-29T03:20:34.857Z,22.18
2017-08-29T03:21:15.380Z,22.09
2017-08-29T03:21:55.917Z,22.14
2017-08-29T03:22:36.454Z,22.18
2017-08-29T03:23:16.975Z,22.06
2017-08-29T03:23:57.493Z,22.02
2017-08-29T03:24:38.036Z,21.92
2017-08-29T03:25:18.558Z,21.98
2017-08-29T03:25:59.127Z,22.03
2017-08-29T03:26:39.645Z,21.98
2017-08-29T03:27:20.212Z,21.96
2017-08-29T03:28:00.778Z,22.02
2017-08-29T03:28:41.285Z,22.03
2017-08-29T03:29:21.814Z,22.07
2017-08-29T03:30:02.317Z,22.05
2017-08-29T03:30:42.871Z,21.99
2017-08-29T03:31:23.386Z,21.99
2017-08-29T03:32:03.975Z,21.92
2017-08-29T03:32:44.516Z,22.06
2017-08-29T03:33:25.078Z,22.03
2017-08-29T03:34:05.543Z,21.98
2017-08-29T03:34:46.130Z,21.98
2017-08-29T03:35:26.621Z,21.91
2017-08-29T03:36:07.176Z,21.94
2017-08-29T03:36:47.671Z,21.9
2017-08-29T03:37:28.238Z,21.84
2017-08-29T03:38:08.783Z,21.83
2017-08-29T03:38:49.353Z,21.92
2017-08-29T03:39:29.904Z,21.88
2017-08-29T03:40:10.403Z,21.77
2017-08-29T03:40:50.975Z,21.74
2017-08-29T03:41:31.677Z,21.75
2017-08-29T03:42:12.233Z,21.8
2017-08-29T03:42:52.918Z,21.72
2017-08-29T03:43:33.362Z,21.74
2017-08-29T03:44:13.863Z,21.72
2017-08-29T03:44:54.442Z,21.88
2017-08-29T03:45:35.061Z,21.75
2017-08-29T03:46:15.543Z,21.84
2017-08-29T03:46:56.087Z,21.88
2017-08-29T03:47:36.648Z,21.94
2017-08-29T03:48:17.167Z,21.98
2017-08-29T03:48:57.709Z,21.83
2017-08-29T03:49:38.274Z,21.75
2017-08-29T03:50:18.788Z,21.74
2017-08-29T03:50:59.356Z,21.77
2017-08-29T03:51:39.962Z,21.75
2017-08-29T03:52:20.977Z,21.74
2017-08-29T03:53:01.561Z,21.82
2017-08-29T03:53:42.164Z,21.79
2017-08-29T03:54:22.764Z,21.61
2017-08-29T03:55:03.546Z,21.64
2017-08-29T03:55:43.912Z,21.74
2017-08-29T03:56:24.496Z,21.65
2017-08-29T03:57:05.026Z,21.58
2017-08-29T03:57:45.584Z,21.64
2017-08-29T03:58:26.114Z,21.49
2017-08-29T03:59:06.664Z,21.49
2017-08-29T03:59:47.245Z,21.37
2017-08-29T04:00:27.751Z,21.34
2017-08-29T04:01:08.319Z,21.32
2017-08-29T04:01:48.871Z,21.46
2017-08-29T04:02:29.405Z,21.46
2017-08-29T04:03:09.931Z,21.43
2017-08-29T04:03:50.450Z,21.43
2017-08-29T04:04:31.049Z,21.43
2017-08-29T04:05:11.546Z,21.47
2017-08-29T04:05:52.074Z,21.43
2017-08-29T04:06:32.686Z,21.31
2017-08-29T04:07:13.211Z,21.13
2017-08-29T04:07:53.734Z,21.12
2017-08-29T04:08:34.274Z,21.13
2017-08-29T04:09:14.835Z,21.32
2017-08-29T04:09:55.389Z,21.37
2017-08-29T04:10:35.934Z,21.42
2017-08-29T04:11:16.614Z,21.52
2017-08-29T04:11:57.174Z,21.52
2017-08-29T04:12:37.686Z,21.4
2017-08-29T04:13:18.229Z,21.49
2017-08-29T04:13:58.749Z,21.42
2017-08-29T04:14:39.310Z,21.31
2017-08-29T04:15:19.937Z,21.24
2017-08-29T04:16:00.502Z,21.16
2017-08-29T04:16:41.049Z,21.16
2017-08-29T04:17:21.607Z,21.16
2017-08-29T04:18:02.140Z,21.28
2017-08-29T04:18:42.619Z,21.1
2017-08-29T04:19:23.183Z,21.12
2017-08-29T04:20:03.745Z,21.16
2017-08-29T04:20:44.332Z,21.19
2017-08-29T04:21:24.843Z,21.29
2017-08-29T04:22:05.374Z,21.32
2017-08-29T04:22:45.892Z,21.34
2017-08-29T04:23:26.452Z,21.27
2017-08-29T04:24:06.959Z,21.16
2017-08-29T04:24:47.559Z,21.14
2017-08-29T04:25:28.075Z,21.19
2017-08-29T04:26:08.652Z,21.17
2017-08-29T04:26:49.158Z,21.14
2017-08-29T04:27:29.692Z,21.14
2017-08-29T04:28:10.271Z,21.04
2017-08-29T04:28:50.779Z,21.14
2017-08-29T04:29:31.308Z,21.06
2017-08-29T04:30:11.837Z,21.06
2017-08-29T04:30:52.417Z,20.95
2017-08-29T04:31:32.944Z,21.03
2017-08-29T04:32:13.450Z,20.98
2017-08-29T04:32:54.034Z,20.99
2017-08-29T04:33:34.557Z,21.03
2017-08-29T04:34:15.212Z,21.03
2017-08-29T04:34:55.694Z,21.04
2017-08-29T04:35:36.229Z,21.13
2017-08-29T04:36:16.783Z,21.14
2017-08-29T04:36:57.387Z,21.13
2017-08-29T04:37:37.947Z,21.16
2017-08-29T04:38:18.478Z,21.16
2017-08-29T04:38:59.009Z,21.17
2017-08-29T04:39:39.536Z,21.28
2017-08-29T04:40:20.104Z,21.27
2017-08-29T04:41:00.720Z,21.13
2017-08-29T04:41:41.290Z,21.21
2017-08-29T04:42:21.825Z,21.16
2017-08-29T04:43:02.343Z,21.14
2017-08-29T04:43:42.898Z,21.28
2017-08-29T04:44:23.423Z,21.28
2017-08-29T04:45:04.008Z,21.19
2017-08-29T04:45:44.523Z,21.21
2017-08-29T04:46:25.049Z,21.14
2017-08-29T04:47:05.606Z,21.22
2017-08-29T04:47:46.177Z,21.09
2017-08-29T04:48:26.641Z,21.14
2017-08-29T04:49:07.259Z,21.21
2017-08-29T04:49:47.781Z,21.06
2017-08-29T04:50:28.319Z,20.98
2017-08-29T04:51:08.838Z,20.87
2017-08-29T04:51:49.489Z,20.98
2017-08-29T04:52:29.989Z,21.03
2017-08-29T04:53:10.504Z,20.98
2017-08-29T04:53:51.027Z,20.99
2017-08-29T04:54:31.594Z,20.98
2017-08-29T04:55:12.127Z,20.98
2017-08-29T04:55:52.680Z,20.99
2017-08-29T04:56:33.209Z,20.99
2017-08-29T04:57:13.783Z,20.97
2017-08-29T04:57:54.277Z,20.98
2017-08-29T04:58:34.850Z,21.1
2017-08-29T04:59:15.409Z,21.04
2017-08-29T04:59:55.908Z,21.24
2017-08-29T05:00:36.591Z,20.99
2017-08-29T05:01:17.134Z,21.13
2017-08-29T05:01:57.694Z,21.13
2017-08-29T05:02:38.248Z,21.14
2017-08-29T05:03:18.829Z,21.19
2017-08-29T05:03:59.366Z,21.16
2017-08-29T05:04:39.862Z,21.22
2017-08-29T05:05:20.435Z,21.29
2017-08-29T05:06:00.995Z,21.28
2017-08-29T05:06:41.536Z,21.14
2017-08-29T05:07:22.101Z,21.07
2017-08-29T05:08:02.661Z,21.1
2017-08-29T05:08:43.269Z,21.19
2017-08-29T05:09:23.842Z,21.25
2017-08-29T05:10:04.387Z,21.31
2017-08-29T05:10:44.920Z,21.34
2017-08-29T05:11:25.521Z,21.43
2017-08-29T05:12:06.235Z,21.49
2017-08-29T05:12:46.812Z,21.54
2017-08-29T05:13:27.357Z,21.46
2017-08-29T05:14:07.940Z,21.1
2017-08-29T05:14:48.471Z,21.07
2017-08-29T05:15:29.037Z,20.8
2017-08-29T05:16:09.596Z,20.66
2017-08-29T05:16:50.102Z,20.62
2017-08-29T05:17:30.613Z,20.8
2017-08-29T05:18:11.221Z,20.67
2017-08-29T05:18:51.735Z,20.84
2017-08-29T05:19:32.224Z,20.94
2017-08-29T05:20:12.865Z,21.1
2017-08-29T05:20:53.358Z,21.13
2017-08-29T05:21:33.873Z,21.24
2017-08-29T05:22:14.398Z,21.07
2017-08-29T05:22:54.945Z,21.1
2017-08-29T05:23:35.490Z,21.24
2017-08-29T05:24:16.012Z,21.34
2017-08-29T05:24:56.537Z,21.42
2017-08-29T05:25:37.078Z,21.52
2017-08-29T05:26:17.640Z,21.65
2017-08-29T05:26:58.144Z,21.64
2017-08-29T05:27:38.730Z,21.65
2017-08-29T05:28:19.261Z,21.5
2017-08-29T05:28:59.830Z,21.5
2017-08-29T05:29:40.362Z,21.67
2017-08-29T05:30:20.943Z,21.79
2017-08-29T05:31:01.456Z,21.74
2017-08-29T05:31:41.980Z,21.82
2017-08-29T05:32:22.507Z,21.94
2017-08-29T05:33:03.037Z,21.84
2017-08-29T05:33:43.577Z,21.8
2017-08-29T05:34:24.146Z,21.61
2017-08-29T05:35:05.526Z,21.68
2017-08-29T05:35:46.123Z,21.74
2017-08-29T05:36:26.601Z,21.8
2017-08-29T05:37:07.581Z,21.68
2017-08-29T05:37:48.180Z,21.68
2017-08-29T05:38:28.710Z,21.69
2017-08-29T05:39:09.293Z,21.72
2017-08-29T05:39:49.799Z,21.71
2017-08-29T05:40:30.496Z,21.69
2017-08-29T05:41:11.072Z,21.79
2017-08-29T05:41:51.711Z,21.84
2017-08-29T05:42:32.279Z,21.69
2017-08-29T05:43:12.813Z,21.74
2017-08-29T05:43:53.391Z,21.77
2017-08-29T05:44:33.892Z,21.82
2017-08-29T05:45:14.440Z,21.83
2017-08-29T05:45:55.017Z,21.69
2017-08-29T05:46:35.537Z,21.8
2017-08-29T05:47:16.076Z,21.82
2017-08-29T05:47:56.647Z,21.92
2017-08-29T05:48:37.212Z,21.92
2017-08-29T05:49:17.762Z,21.86
2017-08-29T05:49:58.293Z,21.88
2017-08-29T05:50:38.865Z,21.94
2017-08-29T05:51:19.358Z,21.91
2017-08-29T05:51:59.904Z,21.92
2017-08-29T05:52:40.464Z,22
2017-08-29T05:53:21.028Z,22.03
2017-08-29T05:54:01.532Z,22.05
2017-08-29T05:54:42.073Z,21.98
2017-08-29T05:55:22.640Z,22.02
2017-08-29T05:56:03.199Z,21.9
2017-08-29T05:56:43.685Z,21.82
2017-08-29T05:57:24.242Z,21.77
2017-08-29T05:58:04.801Z,21.75
2017-08-29T05:58:45.302Z,21.86
2017-08-29T05:59:25.870Z,21.83
2017-08-29T06:00:06.395Z,21.82
2017-08-29T06:00:46.955Z,21.92
2017-08-29T06:01:27.500Z,21.9
2017-08-29T06:02:08.036Z,21.99
2017-08-29T06:02:48.543Z,22
2017-08-29T06:03:29.087Z,22.09
2017-08-29T06:04:09.617Z,22.14
2017-08-29T06:04:50.173Z,22.27
2017-08-29T06:05:30.704Z,22.35
2017-08-29T06:06:11.200Z,22.33
2017-08-29T06:06:51.787Z,22.31
2017-08-29T06:07:32.319Z,22.02
2017-08-29T06:08:12.890Z,22.03
2017-08-29T06:08:53.477Z,22.14
2017-08-29T06:09:33.987Z,22.3
2017-08-29T06:10:14.545Z,22.31
2017-08-29T06:10:55.084Z,22.33
2017-08-29T06:11:35.607Z,22.28
2017-08-29T06:12:16.129Z,22.4
2017-08-29T06:12:56.651Z,22.45
2017-08-29T06:13:37.227Z,22.35
2017-08-29T06:14:17.767Z,22.49
2017-08-29T06:14:58.328Z,22.43
2017-08-29T06:15:38.892Z,22.55
2017-08-29T06:16:19.510Z,22.46
2017-08-29T06:17:00.050Z,22.57
2017-08-29T06:17:40.568Z,22.64
2017-08-29T06:18:21.056Z,22.55
2017-08-29T06:19:01.594Z,22.54
2017-08-29T06:19:42.139Z,22.49
2017-08-29T06:20:22.719Z,22.58
2017-08-29T06:21:03.201Z,22.64
2017-08-29T06:21:43.727Z,22.49
2017-08-29T06:22:24.306Z,22.49
2017-08-29T06:23:04.859Z,22.31
2017-08-29T06:23:45.408Z,22.52
2017-08-29T06:24:25.999Z,22.62
2017-08-29T06:25:06.499Z,22.85
2017-08-29T06:25:47.123Z,22.76
2017-08-29T06:26:27.664Z,22.75
2017-08-29T06:27:08.243Z,22.61
2017-08-29T06:27:48.808Z,22.6
2017-08-29T06:28:29.292Z,22.65
2017-08-29T06:29:10.005Z,22.58
2017-08-29T06:29:50.406Z,22.75
2017-08-29T06:30:30.927Z,22.76
2017-08-29T06:31:11.480Z,22.83
2017-08-29T06:31:52.021Z,22.77
2017-08-29T06:32:32.544Z,22.94
2017-08-29T06:33:13.119Z,23
2017-08-29T06:33:53.630Z,23
2017-08-29T06:34:34.234Z,22.86
2017-08-29T06:35:14.793Z,22.88
2017-08-29T06:35:55.310Z,22.8
2017-08-29T06:36:35.882Z,22.86
2017-08-29T06:37:16.430Z,23.02
2017-08-29T06:37:56.927Z,23.01
2017-08-29T06:38:37.475Z,23
2017-08-29T06:39:18.098Z,23.09
2017-08-29T06:39:58.634Z,23.13
2017-08-29T06:40:39.237Z,23.05
2017-08-29T06:41:19.786Z,23.15
2017-08-29T06:42:00.314Z,23.16
2017-08-29T06:42:40.822Z,23.19
2017-08-29T06:43:21.413Z,23.16
2017-08-29T06:44:01.898Z,23.33
2017-08-29T06:44:42.410Z,23.36
2017-08-29T06:45:22.979Z,23.31
2017-08-29T06:46:03.581Z,23.28
2017-08-29T06:46:44.122Z,23.23
2017-08-29T06:47:24.678Z,23.33
2017-08-29T06:48:05.239Z,23.2
2017-08-29T06:48:45.793Z,23.32
2017-08-29T06:49:26.373Z,23.38
2017-08-29T06:50:06.884Z,23.33
2017-08-29T06:50:47.526Z,23.35
2017-08-29T06:51:28.111Z,23.38
2017-08-29T06:52:08.736Z,23.5
2017-08-29T06:52:49.578Z,23.47
2017-08-29T06:53:30.449Z,23.4
2017-08-29T06:54:10.960Z,23.46
2017-08-29T06:54:51.499Z,23.47
2017-08-29T06:55:32.032Z,23.55
2017-08-29T06:56:12.606Z,23.57
2017-08-29T06:56:53.119Z,23.48
2017-08-29T06:57:33.643Z,23.43
2017-08-29T06:58:14.205Z,23.48
2017-08-29T06:58:54.727Z,23.66
2017-08-29T06:59:35.241Z,23.69
2017-08-29T07:00:15.843Z,23.73
2017-08-29T07:00:56.452Z,23.68
2017-08-29T07:01:36.997Z,23.76
2017-08-29T07:02:17.586Z,23.66
2017-08-29T07:02:58.152Z,23.8
2017-08-29T07:03:38.699Z,23.8
2017-08-29T07:04:19.222Z,23.95
2017-08-29T07:04:59.732Z,24.06
2017-08-29T07:05:40.302Z,24.16
2017-08-29T07:06:20.828Z,24.05
2017-08-29T07:07:01.404Z,24.05
2017-08-29T07:07:41.969Z,24.15
2017-08-29T07:08:22.510Z,24.18
2017-08-29T07:09:03.030Z,24.37
2017-08-29T07:09:43.661Z,24.35
2017-08-29T07:10:24.162Z,24.5
2017-08-29T07:11:04.709Z,24.43
2017-08-29T07:11:45.243Z,24.55
2017-08-29T07:12:25.838Z,24.64
2017-08-29T07:13:06.321Z,24.76
2017-08-29T07:13:46.884Z,24.71
2017-08-29T07:14:27.461Z,24.91
2017-08-29T07:15:07.988Z,24.91
2017-08-29T07:15:48.725Z,24.95
2017-08-29T07:16:29.274Z,25.05
2017-08-29T07:17:09.771Z,25
2017-08-29T07:17:50.345Z,24.91
2017-08-29T07:18:31.448Z,24.96
2017-08-29T07:19:12.167Z,24.99
2017-08-29T07:19:52.663Z,24.99
2017-08-29T07:20:33.192Z,25
2017-08-29T07:21:13.735Z,24.87
2017-08-29T07:21:54.315Z,25
2017-08-29T07:22:34.814Z,25.1
2017-08-29T07:23:15.424Z,25.05
2017-08-29T07:23:55.906Z,25.09
2017-08-29T07:24:36.470Z,25.17
2017-08-29T07:25:17.001Z,25.1
2017-08-29T07:25:57.549Z,25.1
2017-08-29T07:26:38.106Z,25.2
2017-08-29T07:27:18.641Z,25.18
2017-08-29T07:27:59.235Z,25.21
2017-08-29T07:28:39.757Z,25.27
2017-08-29T07:29:20.333Z,25.35
2017-08-29T07:30:00.844Z,25.42
2017-08-29T07:30:41.436Z,25.33
2017-08-29T07:31:21.946Z,25.42
2017-08-29T07:32:02.575Z,25.43
2017-08-29T07:32:43.047Z,25.54
2017-08-29T07:33:23.610Z,25.54
2017-08-29T07:34:04.152Z,25.52
2017-08-29T07:34:44.700Z,25.51
2017-08-29T07:35:25.250Z,25.46
2017-08-29T07:36:05.823Z,25.32
2017-08-29T07:36:46.320Z,25.3
2017-08-29T07:37:26.915Z,25.4
2017-08-29T07:38:07.428Z,25.33
2017-08-29T07:38:47.968Z,25.35
2017-08-29T07:39:28.535Z,25.4
2017-08-29T07:40:09.107Z,25.45
2017-08-29T07:40:49.667Z,25.33
2017-08-29T07:41:30.195Z,25.36
2017-08-29T07:42:10.718Z,25.4
2017-08-29T07:42:51.333Z,25.18
2017-08-29T07:43:31.889Z,25.28
2017-08-29T07:44:12.374Z,25.14
2017-08-29T07:44:52.922Z,25.08
2017-08-29T07:45:33.475Z,25.14
2017-08-29T07:46:14.039Z,25.15
2017-08-29T07:46:54.637Z,25.28
2017-08-29T07:47:35.152Z,25.21
2017-08-29T07:48:15.692Z,25.27
2017-08-29T07:48:56.202Z,25.18
2017-08-29T07:49:36.763Z,25.32
2017-08-29T07:50:17.306Z,25.35
2017-08-29T07:50:58.092Z,25.18
2017-08-29T07:51:38.634Z,25.32
2017-08-29T07:52:19.163Z,25.32
2017-08-29T07:52:59.712Z,25.47
2017-08-29T07:53:40.274Z,25.33
2017-08-29T07:54:20.800Z,25.36
2017-08-29T07:55:01.341Z,25.32
2017-08-29T07:55:41.896Z,25.38
2017-08-29T07:56:22.455Z,25.39
2017-08-29T07:57:02.948Z,25.55
2017-08-29T07:57:43.548Z,25.55
2017-08-29T07:58:24.073Z,25.64
2017-08-29T07:59:04.635Z,25.6
2017-08-29T07:59:45.210Z,25.52
2017-08-29T08:00:25.767Z,25.61
2017-08-29T08:01:06.286Z,25.57
2017-08-29T08:01:46.919Z,25.64
2017-08-29T08:02:27.502Z,25.54
2017-08-29T08:03:08.055Z,25.46
2017-08-29T08:03:48.622Z,25.67
2017-08-29T08:04:29.188Z,25.69
2017-08-29T08:05:09.750Z,25.76
2017-08-29T08:05:50.263Z,25.75
2017-08-29T08:06:30.857Z,25.73
2017-08-29T08:07:11.393Z,25.77
2017-08-29T08:07:51.946Z,25.88
2017-08-29T08:08:32.477Z,25.91
2017-08-29T08:09:13.057Z,25.77
2017-08-29T08:09:53.613Z,25.79
2017-08-29T08:10:34.148Z,25.87
2017-08-29T08:11:14.694Z,25.65
2017-08-29T08:11:55.282Z,25.64
2017-08-29T08:12:35.776Z,25.75
2017-08-29T08:13:16.362Z,25.92
2017-08-29T08:13:56.929Z,25.91
2017-08-29T08:14:37.497Z,25.8
2017-08-29T08:15:18.058Z,25.69
2017-08-29T08:15:58.572Z,25.67
2017-08-29T08:16:39.090Z,25.52
2017-08-29T08:17:19.658Z,25.46
2017-08-29T08:18:00.143Z,25.45
2017-08-29T08:18:40.715Z,25.64
2017-08-29T08:19:21.265Z,25.79
2017-08-29T08:20:01.855Z,25.77
2017-08-29T08:20:42.337Z,25.8
2017-08-29T08:21:22.855Z,25.79
2017-08-29T08:22:03.391Z,25.8
2017-08-29T08:22:43.964Z,25.9
2017-08-29T08:23:24.484Z,25.95
2017-08-29T08:24:05.048Z,25.87
2017-08-29T08:24:45.629Z,25.88
2017-08-29T08:25:26.174Z,25.79
2017-08-29T08:26:06.669Z,25.91
2017-08-29T08:26:47.292Z,25.95
2017-08-29T08:27:27.806Z,25.77
2017-08-29T08:28:08.912Z,25.88
2017-08-29T08:28:49.456Z,25.79
2017-08-29T08:29:29.985Z,25.91
2017-08-29T08:30:10.573Z,25.95
2017-08-29T08:30:51.106Z,25.92
2017-08-29T08:31:31.600Z,26.02
2017-08-29T08:32:12.132Z,25.99
2017-08-29T08:32:52.662Z,25.99
2017-08-29T08:33:33.206Z,26.06
2017-08-29T08:34:13.781Z,25.92
2017-08-29T08:34:54.329Z,25.82
2017-08-29T08:35:34.915Z,25.79
2017-08-29T08:36:15.448Z,25.7
2017-08-29T08:36:56.047Z,25.64
2017-08-29T08:37:36.578Z,25.62
2017-08-29T08:38:17.076Z,25.67
2017-08-29T08:38:57.637Z,25.72
2017-08-29T08:39:38.200Z,25.65
2017-08-29T08:40:18.683Z,25.79
2017-08-29T08:40:59.226Z,25.8
2017-08-29T08:41:39.775Z,25.88
2017-08-29T08:42:20.331Z,25.87
2017-08-29T08:43:00.885Z,25.83
2017-08-29T08:43:41.426Z,25.77
2017-08-29T08:44:21.978Z,25.91
2017-08-29T08:45:02.550Z,26.02
2017-08-29T08:45:43.073Z,26.12
2017-08-29T08:46:23.599Z,26.12
2017-08-29T08:47:04.139Z,26.12